Abbeville, Louisiana
Current Conditions -  °F | °C
As of 5:55 AM on Sunday 23 Nov 2014 (Local Time) from KIYA Reporting Station
Drizzle Drizzle  
Wind Chill: 62°   Ceiling: 10000
Heat Index: 62°   Visibility: 10mi
Dew Point: 61°   Wind: 5mph
Humidity: 97%   Direction: 100°E
Pressure: 29.63"   Gusts: NA
Location:  29.97°N, 92.13°W
Report Text: KIYA 231155Z AUTO 10004KT 10SM DZ BKN100 OVC110 17/16 A2963 RMK AO2 T01650160 10185 20165
Loading
Personal Weather Stations






























Interactive Weather Map New forecast layout! Learn more

10-Day Weather Forecast

Advertisements
Track Severe Weather on mobile